Time;durP1;ratioP1;P1;durP2;ratioP2;P2;SDS_P1;SDS_P2;PMS_P1;PMS_P2;Temp;Humidity;BMP_temperature;BMP_pressure;BME280_temperature;BME280_humidity;BME280_pressure;Samples;Min_cycle;Max_cycle;Signal;HPM_P1;HPM_P2
2021/08/04 00:00:50;;;;;;;7.03;3.35;;;;;;;13.54;91.09;95466.78;5064542;28;20499;-76
2021/08/04 00:03:22;;;;;;;7.38;3.30;;;;;;;13.54;91.11;95466.78;5058482;28;20396;-76
2021/08/04 00:05:48;;;;;;;9.50;3.35;;;;;;;13.64;91.56;95471.91;5039297;28;20070;-76
2021/08/04 00:08:14;;;;;;;5.43;3.25;;;;;;;13.67;91.06;95471.34;5051342;28;20041;-76
2021/08/04 00:10:39;;;;;;;8.30;3.17;;;;;;;13.56;90.21;95469.94;5043791;28;20116;-77
2021/08/04 00:13:05;;;;;;;6.47;3.22;;;;;;;13.60;91.91;95481.50;5035099;28;20510;-76
2021/08/04 00:15:30;;;;;;;6.28;3.22;;;;;;;13.58;92.04;95481.00;5051643;28;20048;-77
2021/08/04 00:17:56;;;;;;;6.90;3.17;;;;;;;13.50;93.13;95481.66;5053902;28;20040;-77
2021/08/04 00:20:21;;;;;;;5.07;3.05;;;;;;;13.54;91.67;95482.66;5037077;28;20570;-76
2021/08/04 00:22:47;;;;;;;8.05;3.38;;;;;;;13.47;93.84;95480.38;5051951;28;20037;-77
2021/08/04 00:25:12;;;;;;;6.03;3.15;;;;;;;13.50;92.38;95473.72;5042929;28;20407;-76
2021/08/04 00:27:38;;;;;;;7.78;3.20;;;;;;;13.50;92.76;95471.09;5043955;28;20252;-75
2021/08/04 00:30:06;;;;;;;5.82;3.63;;;;;;;13.53;93.53;95475.78;5033256;28;20100;-77
2021/08/04 00:32:31;;;;;;;7.10;3.72;;;;;;;13.54;92.19;95477.38;5045441;28;20040;-77
2021/08/04 00:34:57;;;;;;;6.15;3.40;;;;;;;13.43;92.40;95478.59;5047467;28;20613;-76
2021/08/04 00:37:23;;;;;;;7.90;3.10;;;;;;;13.48;93.44;95479.31;5042362;28;20044;-77
2021/08/04 00:39:48;;;;;;;7.00;3.40;;;;;;;13.44;92.35;95477.53;5056657;28;20079;-75
2021/08/04 00:42:18;;;;;;;7.85;3.50;;;;;;;13.32;93.19;95481.38;5036287;28;20084;-77
2021/08/04 00:44:45;;;;;;;6.70;3.22;;;;;;;13.31;93.20;95485.06;5031712;28;20045;-77
2021/08/04 00:47:10;;;;;;;5.55;3.28;;;;;;;13.29;93.05;95486.47;5049218;28;20119;-77
2021/08/04 00:49:38;;;;;;;6.63;3.28;;;;;;;13.27;93.62;95480.66;5037124;28;20057;-77
2021/08/04 00:52:04;;;;;;;7.97;3.42;;;;;;;13.30;93.99;95480.88;5049674;28;20041;-76
2021/08/04 00:54:30;;;;;;;7.90;3.25;;;;;;;13.14;94.77;95484.81;5046869;28;20037;-77
2021/08/04 00:56:55;;;;;;;8.70;3.50;;;;;;;13.17;94.51;95473.66;5055397;28;20044;-77
2021/08/04 00:59:21;;;;;;;5.82;3.33;;;;;;;13.22;94.29;95481.53;5039152;28;20033;-76
2021/08/04 01:01:50;;;;;;;5.78;3.53;;;;;;;13.21;93.77;95482.59;5046151;28;20060;-76
2021/08/04 01:04:22;;;;;;;6.90;3.60;;;;;;;13.15;93.93;95491.66;5045119;28;20045;-77
2021/08/04 01:07:09;;;;;;;6.40;3.55;;;;;;;13.10;94.75;95484.59;5048465;28;20043;-77
2021/08/04 01:09:56;;;;;;;6.40;3.55;;;;;;;13.06;94.95;95488.06;5046753;28;20052;-76
2021/08/04 01:12:34;;;;;;;7.32;3.58;;;;;;;13.00;95.25;95490.00;5051312;28;20037;-77
2021/08/04 01:15:02;;;;;;;6.07;3.30;;;;;;;12.99;95.42;95486.59;5048181;28;20051;-77
2021/08/04 01:17:28;;;;;;;6.90;3.55;;;;;;;12.93;95.22;95485.09;5050164;28;20032;-77
2021/08/04 01:20:10;;;;;;;7.70;3.75;;;;;;;12.90;95.55;95480.38;5038855;28;20041;-77
2021/08/04 01:23:00;;;;;;;6.65;3.58;;;;;;;12.92;95.88;95480.88;5040404;28;20041;-77
2021/08/04 01:25:29;;;;;;;5.45;3.20;;;;;;;12.92;94.99;95475.59;5040629;28;20049;-77
2021/08/04 01:28:19;;;;;;;9.88;3.65;;;;;;;12.83;95.71;95480.72;5031140;28;20041;-76
2021/08/04 01:30:46;;;;;;;7.68;3.88;;;;;;;12.85;96.32;95480.44;5035994;28;20041;-76
2021/08/04 01:33:16;;;;;;;7.97;4.00;;;;;;;12.95;96.25;95484.81;5045330;28;20041;-77
2021/08/04 01:35:44;;;;;;;6.15;3.30;;;;;;;12.94;96.72;95480.56;5050691;28;20033;-77
2021/08/04 01:38:14;;;;;;;7.95;3.85;;;;;;;12.93;96.38;95479.81;5033376;28;20041;-77
2021/08/04 01:40:41;;;;;;;6.88;3.35;;;;;;;12.79;96.41;95478.94;5044232;28;20040;-77
2021/08/04 01:43:10;;;;;;;5.93;3.42;;;;;;;12.86;96.75;95479.38;5047809;28;20044;-77
2021/08/04 01:45:38;;;;;;;6.13;3.50;;;;;;;12.78;97.14;95477.34;5051702;28;20044;-78
2021/08/04 01:48:05;;;;;;;10.30;3.70;;;;;;;12.80;96.80;95475.19;5033479;28;20100;-77
2021/08/04 01:50:30;;;;;;;7.05;3.67;;;;;;;12.86;96.98;95468.00;5036747;28;20142;-77
2021/08/04 01:52:57;;;;;;;8.20;3.58;;;;;;;12.86;96.38;95463.53;5039446;28;20503;-77
2021/08/04 01:55:23;;;;;;;7.93;3.72;;;;;;;12.74;97.19;95465.78;5041437;28;20411;-77
2021/08/04 01:57:48;;;;;;;7.68;3.90;;;;;;;12.72;97.14;95470.56;5044325;28;20052;-77
2021/08/04 02:00:14;;;;;;;6.60;3.17;;;;;;;12.80;97.60;95462.00;5038504;28;20061;-77
2021/08/04 02:02:40;;;;;;;6.80;3.50;;;;;;;12.77;96.95;95465.22;5031625;28;20039;-76
2021/08/04 02:05:06;;;;;;;7.47;3.97;;;;;;;12.64;97.30;95451.66;5032790;28;20506;-77
2021/08/04 02:07:51;;;;;;;7.13;3.70;;;;;;;12.75;97.48;95456.81;5031145;28;20446;-78
2021/08/04 02:10:23;;;;;;;7.75;3.75;;;;;;;12.75;98.46;95451.53;5038897;28;20045;-77
2021/08/04 02:13:27;;;;;;;7.22;3.53;;;;;;;12.76;97.28;95453.09;5039397;28;20037;-77
2021/08/04 02:16:05;;;;;;;7.00;3.75;;;;;;;12.75;97.29;95456.81;5037221;28;20080;-76
2021/08/04 02:18:30;;;;;;;7.38;3.80;;;;;;;12.73;97.66;95449.16;5040869;28;20049;-76
2021/08/04 02:21:00;;;;;;;8.13;4.00;;;;;;;12.60;97.90;95444.59;5048842;28;20044;-77
2021/08/04 02:23:31;;;;;;;7.05;3.97;;;;;;;12.70;97.88;95448.94;5039248;28;20517;-77
2021/08/04 02:26:10;;;;;;;7.20;3.88;;;;;;;12.59;97.38;95449.06;5051133;28;20041;-77
2021/08/04 02:28:38;;;;;;;9.95;3.83;;;;;;;12.68;97.34;95451.84;5032625;28;20392;-77
2021/08/04 02:31:07;;;;;;;6.38;3.58;;;;;;;12.70;97.04;95448.94;5035062;28;20045;-77
2021/08/04 02:33:33;;;;;;;6.68;3.50;;;;;;;12.70;97.20;95454.22;5040995;28;20047;-77
2021/08/04 02:36:00;;;;;;;6.57;3.65;;;;;;;12.64;98.96;95451.66;5046251;28;20053;-77
2021/08/04 02:38:26;;;;;;;7.47;4.13;;;;;;;12.65;97.59;95455.84;5043203;28;20072;-77
2021/08/04 02:40:52;;;;;;;7.88;3.97;;;;;;;12.68;97.46;95445.81;5045000;28;20040;-77
2021/08/04 02:43:19;;;;;;;8.77;3.97;;;;;;;12.64;97.77;95446.38;5034889;28;20560;-77
2021/08/04 02:45:46;;;;;;;7.28;3.35;;;;;;;12.73;97.49;95448.38;5032000;28;20504;-77
2021/08/04 02:48:13;;;;;;;11.27;3.80;;;;;;;12.67;98.25;95444.22;5032866;28;20045;-78
2021/08/04 02:50:45;;;;;;;7.63;4.22;;;;;;;12.61;98.64;95441.66;5035937;28;20040;-77
2021/08/04 02:53:15;;;;;;;6.50;3.67;;;;;;;12.62;97.47;95443.22;5031119;28;20454;-76
2021/08/04 02:55:41;;;;;;;7.43;3.60;;;;;;;12.55;98.46;95442.78;5042621;28;20041;-76
2021/08/04 02:58:07;;;;;;;10.82;4.00;;;;;;;12.63;97.80;95439.50;5056611;28;20041;-77
2021/08/04 03:00:32;;;;;;;8.25;3.70;;;;;;;12.52;98.24;95432.00;5069169;28;20124;-77
2021/08/04 03:02:58;;;;;;;5.75;3.65;;;;;;;12.49;98.39;95428.09;5037708;28;20050;-77
2021/08/04 03:05:23;;;;;;;6.90;3.78;;;;;;;12.55;98.92;95437.50;5030584;28;20502;-76
2021/08/04 03:07:49;;;;;;;8.68;4.05;;;;;;;12.57;98.32;95432.75;5042559;28;20522;-77
2021/08/04 03:10:14;;;;;;;7.45;3.58;;;;;;;12.61;97.83;95431.09;5040510;28;20056;-76
2021/08/04 03:12:40;;;;;;;8.60;3.67;;;;;;;12.50;99.13;95440.22;5028771;28;20045;-77
2021/08/04 03:15:06;;;;;;;7.97;3.97;;;;;;;12.49;99.50;95438.63;5034683;28;20037;-77
2021/08/04 03:17:31;;;;;;;7.68;4.25;;;;;;;12.60;98.53;95445.38;5050102;28;20086;-77
2021/08/04 03:19:57;;;;;;;7.15;3.83;;;;;;;12.55;98.14;95437.50;5029040;28;20037;-77
2021/08/04 03:22:22;;;;;;;9.07;4.00;;;;;;;12.53;98.29;95439.66;5028953;28;20072;-77
2021/08/04 03:24:48;;;;;;;9.07;3.72;;;;;;;12.55;98.05;95437.50;5028702;28;20052;-77
2021/08/04 03:27:13;;;;;;;8.25;4.15;;;;;;;12.42;99.13;95443.47;5032236;28;20641;-77
2021/08/04 03:29:39;;;;;;;8.45;3.90;;;;;;;12.52;99.41;95439.94;5031765;28;20533;-76
2021/08/04 03:32:05;;;;;;;8.57;3.83;;;;;;;12.48;99.28;95439.69;5031862;28;20057;-76
2021/08/04 03:34:30;;;;;;;8.02;3.75;;;;;;;12.45;99.78;95443.69;5037094;28;20055;-75
2021/08/04 03:36:56;;;;;;;7.63;3.65;;;;;;;12.49;98.62;95433.34;5052072;28;20150;-76
2021/08/04 03:39:22;;;;;;;11.25;3.95;;;;;;;12.47;99.02;95435.50;5045927;28;20491;-77
2021/08/04 03:41:47;;;;;;;8.43;4.13;;;;;;;12.45;98.76;95432.34;5036848;28;20064;-76
2021/08/04 03:44:13;;;;;;;7.65;3.92;;;;;;;12.42;99.36;95435.56;5048645;28;20044;-77
2021/08/04 03:46:39;;;;;;;7.82;4.15;;;;;;;12.34;99.97;95441.44;5065659;28;20044;-76
2021/08/04 03:49:04;;;;;;;8.52;4.40;;;;;;;12.34;99.45;95430.91;5047347;28;20054;-77
2021/08/04 03:51:29;;;;;;;7.68;4.03;;;;;;;12.42;99.68;95433.69;5049291;28;20057;-77
2021/08/04 03:53:55;;;;;;;14.48;5.68;;;;;;;12.44;99.58;95436.84;5030124;28;20050;-77
2021/08/04 03:56:21;;;;;;;11.07;4.15;;;;;;;12.39;99.59;95430.84;5037634;28;20048;-78
2021/08/04 03:58:47;;;;;;;7.97;4.63;;;;;;;12.36;99.43;95428.78;5031842;28;20124;-77
2021/08/04 04:01:13;;;;;;;9.50;4.30;;;;;;;12.38;99.76;95426.63;5031169;28;20045;-77
2021/08/04 04:03:38;;;;;;;8.90;3.80;;;;;;;12.43;99.58;95423.94;5036047;28;20056;-75
2021/08/04 04:06:04;;;;;;;8.25;4.63;;;;;;;12.38;99.95;95416.06;5043556;28;20144;-77
2021/08/04 04:08:29;;;;;;;7.55;4.18;;;;;;;12.36;100.00;95423.50;5038304;28;20041;-76
2021/08/04 04:10:55;;;;;;;10.50;3.92;;;;;;;12.37;100.00;95425.06;5042721;28;20049;-77
2021/08/04 04:13:21;;;;;;;10.00;4.60;;;;;;;12.49;99.96;95428.09;5037644;28;20042;-76
2021/08/04 04:15:46;;;;;;;9.98;4.38;;;;;;;12.47;100.00;95409.13;5042354;28;20441;-76
2021/08/04 04:18:12;;;;;;;9.70;5.15;;;;;;;12.48;99.91;95422.03;5048969;28;20064;-78
2021/08/04 04:20:37;;;;;;;7.78;3.65;;;;;;;12.49;98.82;95414.88;5044460;28;20117;-78
2021/08/04 04:23:03;;;;;;;9.55;4.07;;;;;;;12.51;98.58;95419.88;5040834;28;20612;-78
2021/08/04 04:25:29;;;;;;;6.75;3.65;;;;;;;12.41;98.94;95420.78;5046308;28;20052;-78
2021/08/04 04:27:54;;;;;;;8.30;3.85;;;;;;;12.44;99.15;95425.50;5052289;28;20345;-78
2021/08/04 04:30:20;;;;;;;7.45;3.72;;;;;;;12.38;99.51;95426.63;5055434;28;20037;-78
2021/08/04 04:32:45;;;;;;;10.05;4.65;;;;;;;12.39;99.87;95420.28;5050411;28;20048;-78
2021/08/04 04:35:12;;;;;;;7.72;4.07;;;;;;;12.36;99.53;95420.88;5034940;28;20118;-78
2021/08/04 04:37:38;;;;;;;6.28;3.70;;;;;;;12.34;99.61;95425.63;5047439;28;20037;-78
2021/08/04 04:40:04;;;;;;;10.55;4.05;;;;;;;12.38;99.87;95426.63;5034356;28;20050;-78
2021/08/04 04:42:30;;;;;;;8.77;4.18;;;;;;;12.45;100.00;95424.44;5040390;28;20036;-78
2021/08/04 04:44:55;;;;;;;9.57;4.05;;;;;;;12.45;100.00;95427.06;5051305;28;20303;-77
2021/08/04 04:47:21;;;;;;;8.48;3.80;;;;;;;12.41;99.57;95436.63;5056864;28;20040;-78
2021/08/04 04:49:46;;;;;;;9.18;3.90;;;;;;;12.48;99.25;95431.78;5059654;28;20116;-78
2021/08/04 04:52:12;;;;;;;7.25;3.97;;;;;;;12.48;99.80;95431.78;5040290;28;20041;-78
2021/08/04 04:54:37;;;;;;;9.45;3.92;;;;;;;12.51;99.42;95425.94;5037553;28;20042;-78
2021/08/04 04:57:03;;;;;;;8.60;4.00;;;;;;;12.55;99.62;95437.50;5038509;28;20124;-77
2021/08/04 04:59:29;;;;;;;7.25;3.92;;;;;;;12.56;99.21;95439.06;5045910;28;20479;-78
2021/08/04 05:01:54;;;;;;;7.75;3.95;;;;;;;12.56;98.92;95436.44;5047562;28;20049;-78
2021/08/04 05:04:20;;;;;;;8.88;3.63;;;;;;;12.52;99.17;95438.06;5034697;28;20073;-78
2021/08/04 05:06:46;;;;;;;9.18;3.67;;;;;;;12.59;99.28;95441.16;5032186;28;20038;-78
2021/08/04 05:09:11;;;;;;;7.97;3.60;;;;;;;12.53;99.09;95429.09;5035885;28;20037;-78
2021/08/04 05:11:37;;;;;;;10.20;4.30;;;;;;;12.53;99.39;95438.84;5048171;28;20072;-78
2021/08/04 05:14:02;;;;;;;9.13;3.78;;;;;;;12.57;99.32;95440.66;5039095;28;20517;-78
2021/08/04 05:16:28;;;;;;;5.63;3.90;;;;;;;12.60;99.03;95434.81;5049565;28;20515;-79
2021/08/04 05:18:53;;;;;;;11.45;3.70;;;;;;;12.66;99.45;95443.44;5039064;28;20119;-78
2021/08/04 05:21:19;;;;;;;6.25;3.42;;;;;;;12.68;98.57;95440.53;5047875;28;20491;-78
2021/08/04 05:23:45;;;;;;;6.82;3.00;;;;;;;12.71;97.13;95446.00;5049201;28;20469;-78
2021/08/04 05:26:11;;;;;;;6.32;3.63;;;;;;;12.71;97.65;95450.50;5033519;28;20045;-77
2021/08/04 05:28:36;;;;;;;7.03;3.30;;;;;;;12.69;97.61;95452.66;5033231;28;20053;-77
2021/08/04 05:31:02;;;;;;;7.32;3.33;;;;;;;12.73;97.39;95443.09;5052523;28;20037;-77
2021/08/04 05:33:28;;;;;;;7.82;3.00;;;;;;;12.71;96.93;95442.59;5033656;28;20485;-76
2021/08/04 05:35:53;;;;;;;6.05;3.08;;;;;;;12.72;97.24;95452.09;5032972;28;20079;-77
2021/08/04 05:38:19;;;;;;;8.35;3.33;;;;;;;12.74;98.20;95449.94;5039133;28;20043;-77
2021/08/04 05:40:44;;;;;;;6.10;3.20;;;;;;;12.84;97.12;95455.09;5046052;28;20231;-76
2021/08/04 05:43:10;;;;;;;9.93;3.20;;;;;;;12.91;97.69;95449.47;5041815;28;20045;-77
2021/08/04 05:45:39;;;;;;;9.38;2.75;;;;;;;12.90;97.39;95453.97;5036418;28;20057;-76
2021/08/04 05:48:05;;;;;;;7.65;3.30;;;;;;;12.96;98.06;95446.75;5045500;28;20065;-76
2021/08/04 05:50:32;;;;;;;7.80;3.15;;;;;;;12.97;96.89;95443.84;5037470;28;20041;-77
2021/08/04 05:52:57;;;;;;;6.28;2.88;;;;;;;12.94;97.73;95433.84;5038339;28;20076;-77
2021/08/04 05:55:23;;;;;;;6.57;3.03;;;;;;;12.99;97.89;95436.38;5035455;28;20065;-77
2021/08/04 05:57:48;;;;;;;7.80;3.03;;;;;;;13.06;96.85;95435.25;5039569;28;20471;-77
2021/08/04 06:00:14;;;;;;;10.80;2.85;;;;;;;13.11;96.41;95432.53;5031098;28;20095;-77
2021/08/04 06:02:40;;;;;;;5.38;3.03;;;;;;;13.05;96.23;95444.25;5037450;28;20056;-77
2021/08/04 06:05:06;;;;;;;4.47;2.60;;;;;;;13.02;96.43;95444.84;5030584;28;20466;-77
2021/08/04 06:07:32;;;;;;;6.70;2.72;;;;;;;13.11;95.83;95443.88;5032814;28;20041;-76
2021/08/04 06:09:57;;;;;;;4.28;2.53;;;;;;;13.09;96.62;95440.75;5034346;28;20044;-77
2021/08/04 06:12:24;;;;;;;5.15;2.90;;;;;;;13.17;97.24;95436.66;5050313;28;20049;-76
2021/08/04 06:14:49;;;;;;;6.43;2.50;;;;;;;13.28;97.19;95432.78;5045413;28;20037;-77
2021/08/04 06:17:15;;;;;;;5.38;2.60;;;;;;;13.30;97.58;95435.94;5041473;28;20075;-77
2021/08/04 06:19:40;;;;;;;5.47;2.50;;;;;;;13.34;94.97;95436.94;5049636;28;20056;-77
2021/08/04 06:22:06;;;;;;;6.63;2.90;;;;;;;13.44;95.41;95440.53;5033064;28;20063;-77
2021/08/04 06:24:32;;;;;;;5.72;3.08;;;;;;;13.38;96.01;95437.19;5035716;28;20159;-77
2021/08/04 06:26:58;;;;;;;4.40;2.50;;;;;;;13.37;95.43;95446.16;5036746;28;20084;-77
2021/08/04 06:29:23;;;;;;;9.32;3.33;;;;;;;13.49;95.93;95448.38;5029781;28;20049;-77
2021/08/04 06:31:49;;;;;;;5.57;2.80;;;;;;;13.53;95.08;95441.41;5033161;28;20033;-77
2021/08/04 06:34:14;;;;;;;5.32;2.63;;;;;;;13.62;94.65;95441.53;5045643;28;20479;-77
2021/08/04 06:36:40;;;;;;;5.10;3.28;;;;;;;13.56;95.76;95448.00;5048337;28;20041;-77
2021/08/04 06:39:05;;;;;;;6.35;2.67;;;;;;;13.54;95.48;95443.00;5048453;28;20036;-77
2021/08/04 06:41:31;;;;;;;4.70;2.40;;;;;;;13.67;95.25;95449.41;5043246;28;20550;-77
2021/08/04 06:43:57;;;;;;;7.00;2.75;;;;;;;13.76;93.38;95446.88;5045316;28;20091;-77
2021/08/04 06:46:22;;;;;;;5.90;2.78;;;;;;;13.77;94.18;95443.94;5048905;28;20040;-77
2021/08/04 06:48:48;;;;;;;6.80;2.65;;;;;;;13.78;95.39;95439.44;5044975;28;20045;-77
2021/08/04 06:51:16;;;;;;;7.57;3.10;;;;;;;13.83;96.20;95436.69;5044788;28;20049;-77
2021/08/04 06:53:42;;;;;;;4.35;2.40;;;;;;;13.94;95.83;95438.09;5030062;28;20422;-77
2021/08/04 06:56:08;;;;;;;5.97;2.75;;;;;;;14.04;95.19;95443.19;5044658;28;20063;-77
2021/08/04 06:58:34;;;;;;;6.10;2.85;;;;;;;14.16;93.35;95444.56;5048874;28;20049;-77
2021/08/04 07:00:59;;;;;;;6.75;2.72;;;;;;;14.18;92.73;95447.72;5047388;28;20124;-76
2021/08/04 07:03:25;;;;;;;6.40;2.78;;;;;;;14.20;92.97;95445.56;5041822;28;20049;-76
2021/08/04 07:05:51;;;;;;;5.03;2.63;;;;;;;14.10;92.81;95440.47;5046195;28;20422;-77
2021/08/04 07:08:19;;;;;;;6.75;2.67;;;;;;;14.11;93.44;95447.34;5050933;28;20125;-77
2021/08/04 07:10:45;;;;;;;5.97;2.60;;;;;;;14.15;94.46;95443.81;5064033;28;20052;-77
2021/08/04 07:13:11;;;;;;;5.80;2.45;;;;;;;14.23;92.48;95452.91;5046028;28;20125;-76
2021/08/04 07:15:37;;;;;;;5.50;2.35;;;;;;;14.12;91.40;95454.19;5042907;28;20048;-77
2021/08/04 07:18:06;;;;;;;7.32;2.38;;;;;;;14.27;92.30;95450.47;5044126;28;20103;-77
2021/08/04 07:20:32;;;;;;;4.03;2.20;;;;;;;14.32;91.99;95443.22;5041668;28;20037;-76
2021/08/04 07:22:58;;;;;;;5.40;2.25;;;;;;;14.37;90.01;95445.75;5035162;28;20116;-77
2021/08/04 07:25:24;;;;;;;3.28;2.00;;;;;;;14.35;91.95;95439.97;5037962;28;20071;-77
2021/08/04 07:27:49;;;;;;;5.90;2.00;;;;;;;14.29;90.77;95448.31;5047903;28;20822;-77
2021/08/04 07:30:15;;;;;;;5.45;2.25;;;;;;;14.31;91.46;95440.84;5042733;28;20537;-77
2021/08/04 07:32:41;;;;;;;4.38;2.28;;;;;;;14.42;91.36;95436.16;5041153;28;20037;-77
2021/08/04 07:35:07;;;;;;;4.80;2.50;;;;;;;14.50;92.04;95443.41;5049619;28;20045;-77
2021/08/04 07:37:33;;;;;;;4.70;2.10;;;;;;;14.53;89.63;95442.81;5035339;28;20049;-78
2021/08/04 07:39:59;;;;;;;4.13;2.25;;;;;;;14.64;90.99;95433.63;5044950;28;20048;-78
2021/08/04 07:42:25;;;;;;;4.53;2.42;;;;;;;14.70;90.52;95440.38;5048485;28;20478;-76
2021/08/04 07:44:51;;;;;;;3.70;2.35;;;;;;;14.63;91.72;95437.34;5050802;28;20053;-75
2021/08/04 07:47:17;;;;;;;3.70;2.33;;;;;;;14.53;90.72;95440.16;5038573;28;20033;-78
2021/08/04 07:49:43;;;;;;;3.92;1.98;;;;;;;14.61;91.01;95433.38;5033223;28;20060;-80
2021/08/04 07:52:09;;;;;;;3.58;2.08;;;;;;;14.56;90.64;95432.41;5032188;28;20055;-78
2021/08/04 07:54:34;;;;;;;4.28;2.17;;;;;;;14.77;90.29;95425.91;5032359;28;20470;-78
2021/08/04 07:57:02;;;;;;;3.00;2.00;;;;;;;14.81;86.33;95433.00;5039124;28;20053;-78
2021/08/04 07:59:28;;;;;;;6.03;2.10;;;;;;;14.83;86.54;95435.34;5049659;28;20033;-78
2021/08/04 08:01:53;;;;;;;3.28;1.92;;;;;;;14.69;87.66;95436.13;5053424;28;20062;-77
2021/08/04 08:04:19;;;;;;;4.28;2.00;;;;;;;14.83;89.57;95425.53;5050621;28;20044;-77
2021/08/04 08:06:45;;;;;;;4.50;1.90;;;;;;;14.69;87.05;95430.84;5042787;28;20033;-78
2021/08/04 08:09:11;;;;;;;2.92;1.83;;;;;;;14.84;85.03;95423.66;5042725;28;20045;-77
2021/08/04 08:11:37;;;;;;;3.03;1.80;;;;;;;14.84;86.22;95415.69;5043783;28;20521;-78
2021/08/04 08:14:03;;;;;;;3.22;1.80;;;;;;;14.81;85.75;95421.59;5037653;28;20046;-78
2021/08/04 08:16:29;;;;;;;3.40;1.80;;;;;;;14.78;86.66;95424.84;5043353;28;20102;-77
2021/08/04 08:18:55;;;;;;;3.97;1.83;;;;;;;14.97;83.14;95420.19;5041201;28;20057;-78
2021/08/04 08:21:23;;;;;;;2.85;1.80;;;;;;;15.03;82.49;95426.94;5048322;28;20049;-77
2021/08/04 08:23:52;;;;;;;4.82;2.00;;;;;;;15.14;84.20;95427.50;5043805;28;20052;-77
2021/08/04 08:26:18;;;;;;;3.97;1.70;;;;;;;15.18;85.48;95425.03;5044675;28;20040;-78
2021/08/04 08:28:43;;;;;;;4.68;1.98;;;;;;;15.31;84.75;95420.75;5037226;28;20045;-78
2021/08/04 08:31:09;;;;;;;2.92;1.88;;;;;;;15.40;82.35;95427.69;5043902;28;20057;-76
2021/08/04 08:33:35;;;;;;;4.05;1.65;;;;;;;15.41;83.13;95423.97;5045882;28;20102;-78
2021/08/04 08:36:00;;;;;;;6.03;1.85;;;;;;;15.47;83.39;95426.47;5033637;28;20080;-77
2021/08/04 08:38:26;;;;;;;4.05;1.80;;;;;;;15.43;79.62;95426.31;5052784;28;20037;-77
2021/08/04 08:40:52;;;;;;;3.33;1.70;;;;;;;15.14;79.18;95429.34;5036325;28;20033;-77
2021/08/04 08:43:17;;;;;;;3.10;1.88;;;;;;;15.37;83.15;95423.00;5055264;28;20095;-77
2021/08/04 08:45:44;;;;;;;3.90;1.92;;;;;;;15.55;86.61;95428.41;5051557;28;20049;-77
2021/08/04 08:48:14;;;;;;;3.63;1.80;;;;;;;15.63;86.01;95424.22;5047496;28;20052;-76
2021/08/04 08:50:42;;;;;;;3.88;1.85;;;;;;;15.68;81.54;95427.53;5040886;28;20530;-76
2021/08/04 08:53:08;;;;;;;2.95;1.80;;;;;;;15.64;79.21;95420.50;5063755;28;20040;-77
2021/08/04 08:55:34;;;;;;;3.13;1.70;;;;;;;15.71;83.36;95418.97;5050421;28;20048;-76
2021/08/04 08:57:59;;;;;;;2.47;1.63;;;;;;;15.97;79.56;95421.00;5031407;28;20045;-77
2021/08/04 09:00:25;;;;;;;3.47;1.73;;;;;;;15.84;79.82;95413.94;5045034;28;20071;-78
2021/08/04 09:02:51;;;;;;;3.53;1.95;;;;;;;15.62;80.93;95412.06;5049295;28;20060;-78
2021/08/04 09:05:17;;;;;;;3.17;1.70;;;;;;;15.63;79.54;95401.16;5039788;28;20045;-79
2021/08/04 09:07:45;;;;;;;3.40;1.80;;;;;;;15.84;76.06;95400.66;5047799;28;20037;-81
2021/08/04 09:10:22;;;;;;;2.00;1.50;;;;;;;15.73;73.29;95403.56;5048084;28;20589;-81
2021/08/04 09:12:50;;;;;;;3.90;1.85;;;;;;;15.58;80.88;95409.22;5052534;28;20041;-83
2021/08/04 09:15:23;;;;;;;3.30;1.85;;;;;;;16.01;76.10;95403.38;5055081;28;20044;-81
2021/08/04 09:18:12;;;;;;;2.47;1.60;;;;;;;16.21;73.21;95402.03;5055475;28;20041;-81
2021/08/04 09:20:53;;;;;;;2.88;1.80;;;;;;;16.07;74.54;95402.16;5051384;28;20108;-83
2021/08/04 09:23:25;;;;;;;2.75;1.67;;;;;;;16.08;71.91;95398.41;5057026;28;20055;-80
2021/08/04 09:26:13;;;;;;;3.28;2.00;;;;;;;16.09;74.64;95394.69;5045550;28;20045;-80
2021/08/04 09:28:57;;;;;;;3.95;1.70;;;;;;;16.01;79.49;95398.06;5054743;28;20055;-80
2021/08/04 09:31:51;;;;;;;2.47;1.67;;;;;;;16.25;80.01;95397.69;5045708;28;20041;-81
2021/08/04 09:34:25;;;;;;;3.42;1.67;;;;;;;16.23;77.78;95394.56;5043304;28;20068;-80
2021/08/04 09:36:58;;;;;;;3.22;1.90;;;;;;;16.16;77.66;95386.28;5053858;28;20045;-81
2021/08/04 09:39:24;;;;;;;3.10;1.80;;;;;;;16.44;77.67;95370.84;5051115;28;20513;-80
2021/08/04 09:41:49;;;;;;;5.55;1.80;;;;;;;16.47;77.21;95374.00;5043691;28;20049;-82
2021/08/04 09:44:15;;;;;;;3.10;1.90;;;;;;;16.24;78.58;95374.09;5036034;28;20072;-80
2021/08/04 09:46:41;;;;;;;2.17;1.52;;;;;;;16.86;74.19;95372.31;5046342;28;20456;-82
2021/08/04 09:49:17;;;;;;;2.10;1.63;;;;;;;17.18;73.00;95379.03;5060607;28;20044;-80
2021/08/04 09:51:44;;;;;;;2.92;1.73;;;;;;;17.25;79.01;95367.94;5034903;28;20044;-82
2021/08/04 09:54:15;;;;;;;4.07;1.77;;;;;;;17.08;78.55;95353.59;5062111;28;20074;-82
2021/08/04 09:56:58;;;;;;;3.13;1.70;;;;;;;17.43;75.19;95369.47;5051694;28;20478;-81
2021/08/04 09:59:25;;;;;;;2.35;1.60;;;;;;;17.16;77.13;95375.16;5053620;28;20056;-81
2021/08/04 10:01:50;;;;;;;3.72;1.90;;;;;;;16.86;78.46;95372.31;5054134;28;20045;-81
2021/08/04 10:04:17;;;;;;;3.38;1.80;;;;;;;16.95;75.00;95370.47;5037347;28;20056;-81
2021/08/04 10:06:45;;;;;;;2.92;1.77;;;;;;;17.34;72.99;95375.91;5053832;28;20042;-81
2021/08/04 10:09:15;;;;;;;2.92;1.90;;;;;;;17.27;71.98;95365.75;5062100;28;20052;-81
2021/08/04 10:11:44;;;;;;;4.20;1.75;;;;;;;17.27;72.54;95371.09;5062081;28;20060;-82
2021/08/04 10:14:15;;;;;;;3.75;1.88;;;;;;;17.25;75.56;95357.31;5049915;28;20746;-82
2021/08/04 10:16:41;;;;;;;3.47;2.00;;;;;;;17.34;78.06;95366.06;5059173;28;20102;-81
2021/08/04 10:19:07;;;;;;;3.97;2.00;;;;;;;17.48;74.74;95364.00;5035574;28;20534;-83
2021/08/04 10:21:34;;;;;;;6.05;2.72;;;;;;;17.38;72.23;95377.59;5034922;28;20033;-82
2021/08/04 10:24:01;;;;;;;3.55;2.17;;;;;;;17.15;74.29;95363.72;5053103;28;20044;-80
2021/08/04 10:26:27;;;;;;;2.03;1.60;;;;;;;17.46;72.41;95371.50;5052683;28;20463;-79
2021/08/04 10:28:55;;;;;;;2.97;1.75;;;;;;;17.45;74.41;95367.25;5058838;28;20045;-78
2021/08/04 10:31:21;;;;;;;3.55;1.80;;;;;;;17.44;75.20;95360.41;5044735;28;20045;-78
2021/08/04 10:33:47;;;;;;;4.07;1.65;;;;;;;17.60;75.19;95358.00;5054244;28;20502;-79
2021/08/04 10:36:15;;;;;;;3.33;1.88;;;;;;;17.58;74.39;95354.09;5047479;28;20037;-78
2021/08/04 10:38:56;;;;;;;3.08;1.73;;;;;;;17.78;70.49;95357.94;5037134;28;20112;-78
2021/08/04 10:41:23;;;;;;;3.47;1.88;;;;;;;17.61;70.43;95358.78;5030452;28;20037;-77
2021/08/04 10:43:51;;;;;;;2.10;1.63;;;;;;;17.56;72.31;95361.63;5040955;28;20045;-80
2021/08/04 10:46:37;;;;;;;3.58;1.90;;;;;;;17.59;70.29;95366.31;5050979;28;20522;-80
2021/08/04 10:49:02;;;;;;;3.45;1.73;;;;;;;17.56;72.81;95370.38;5057961;28;20045;-78
2021/08/04 10:51:28;;;;;;;2.58;1.58;;;;;;;17.46;69.89;95355.53;5037471;28;20045;-78
2021/08/04 10:54:03;;;;;;;2.78;1.92;;;;;;;17.52;69.73;95364.13;5041924;28;20519;-82
2021/08/04 10:56:32;;;;;;;2.88;1.90;;;;;;;17.23;74.81;95360.28;5054081;28;20124;-79
2021/08/04 10:59:12;;;;;;;3.80;2.00;;;;;;;16.90;75.48;95362.66;5050024;28;20040;-80
2021/08/04 11:01:40;;;;;;;3.00;1.98;;;;;;;17.06;77.83;95371.72;5054175;28;20402;-84
2021/08/04 11:04:07;;;;;;;7.93;2.08;;;;;;;16.83;76.76;95362.31;5046208;28;20107;-77
2021/08/04 11:06:42;;;;;;;3.28;1.90;;;;;;;16.97;74.71;95362.97;5033347;28;20068;-81
2021/08/04 11:09:19;;;;;;;4.55;2.00;;;;;;;17.06;77.85;95357.66;5031785;28;20561;-78
2021/08/04 11:11:57;;;;;;;4.00;1.98;;;;;;;17.27;76.78;95360.44;5032113;28;20046;-74
2021/08/04 11:14:56;;;;;;;3.17;1.90;;;;;;;17.01;76.32;95353.28;5048030;28;20051;-75
2021/08/04 11:17:30;;;;;;;3.50;1.85;;;;;;;16.98;75.08;95353.88;5044178;28;20061;-83
2021/08/04 11:20:06;;;;;;;3.65;1.80;;;;;;;17.27;76.58;95347.16;5042662;28;20041;-76
2021/08/04 11:22:34;;;;;;;5.38;2.20;;;;;;;17.77;74.41;95357.19;5037986;28;20537;-78
2021/08/04 11:25:04;;;;;;;2.63;1.70;;;;;;;17.84;72.62;95362.78;5042573;28;20053;-81
2021/08/04 11:27:33;;;;;;;5.13;2.25;;;;;;;17.71;73.82;95352.34;5039402;28;20052;-80
2021/08/04 11:29:59;;;;;;;4.15;1.63;;;;;;;17.71;75.79;95353.09;5041080;28;20146;-80
2021/08/04 11:32:30;;;;;;;3.67;2.00;;;;;;;17.69;75.64;95355.31;5038407;28;20037;-78
2021/08/04 11:34:56;;;;;;;4.25;1.98;;;;;;;17.52;74.09;95350.81;5034981;28;20507;-76
2021/08/04 11:37:23;;;;;;;3.50;1.88;;;;;;;17.56;75.81;95348.31;5036873;28;20049;-78